Terminal Aerodrome Forecast
Issued by NWS Grand Junction, CO

Home | Current Version | Previous Version | Text Only | Print | Product List | Glossary On
Versions: 1 2 3 4 5 6 7 8 9 10 11 12 13 14 15 16 17 18 19 20 21 22 23 24 25 26 27 28 29 30 31 32 33 34 35
000
FTUS45 KGJT 201136
TAFGJT
TAF
KGJT 201136Z 2012/2112 VRB03KT P6SM SCT040 BKN070
     FM201600 17005KT P6SM SCT070 BKN100
     FM201900 27008KT P6SM SCT080 SCT110
     FM210200 10004KT P6SM BKN110
     FM210600 11008KT P6SM SCT110=

USA.gov is the U.S. government's official web portal to all federal, state and local government web resources and services.